Detall de PIREP

Printer-friendly versionPDF version

[2014/10/08 09:55:00]
Flight IATA:CT3303
Pilot Number:042
Company ICAO:CAT
Aircraft Type:F100/A
PAX:22
Aircraft Registration:PFJ
Departing Airport: DTTA
Destination Airport: LEZG
Alternate Airport:LEMD
Online: VATSIM
Route:TOBIB UA725 TANIT UM733 CAR UM732 GINOX UM601 BCN UN725 LOBAR
Flight Level:F320
No Slew and time accel
No pause
Crash detect
Detect pilot in Cockpit between each 30 and 45 minutes
09:55 Zero fuel Weight: 81826 Lbs, Fuel Weight: 22685 Lbs
09:55 VATSIM:DTTA 080930Z 15004KT 100V180 CAVOK 29/18 Q1017 NOSIG
09:55 VATSIM:LEZG 080930Z 09006KT 050V120 9999 FEW040 22/13 Q1013
09:57 Parking Brakes off
10:01 Take-off
10:01 Take off Weight: 104054 Lbs
10:01 Wind: 158º @ 004 Knots Heading: 191º
10:01 POS N36º 50´ 48´´ E010º 13´ 33´´
10:01 Gear Up: 187 Knots
10:01 Flaps:2 at 188 Knots
10:01 Flaps:1 at 189 Knots
10:02 Flaps:0 at 189 Knots
10:16 Wind:148º@015 Knots Heading: 346º Ground Speed: 404 Knots Altitude 22752 ft
10:23 TOC
10:23 Fuel Weight: 19581 Lb
10:31 Wind:145º@047 Knots Heading: 327º Ground Speed: 521 Knots Altitude 32096 ft
10:46 Wind:115º@015 Knots Heading: 271º Ground Speed: 465 Knots Altitude 32086 ft
11:01 Wind:156º@022 Knots Heading: 275º Ground Speed: 463 Knots Altitude 32014 ft
11:16 Wind:181º@027 Knots Heading: 272º Ground Speed: 450 Knots Altitude 31991 ft
11:19 TOD
11:19 Fuel Weight: 15043 Lb
11:31 Wind:140º@015 Knots Heading: 285º Ground Speed: 365 Knots Altitude 14665 ft
11:38 Flaps:1 at 195 Knots
11:41 Gear Down: 187 Knots
11:41 Flaps:2 at 186 Knots
11:43 TouchDown:Rate -601 ft/min Speed: 171 Knots
11:43 Flaps:3 at 146 Knots
11:44 VATSIM:LEZG 081130Z 11008KT 080V140 9999 FEW055 SCT070 26/12 Q1012
11:44 Land
11:44 Wind:091º@008 Knots
11:44 Heading: 301º
11:44 Flight Duration: 01:43
11:44 Landing Weight: 95755 Lbs
11:44 POS N41º 39´ 54´´ W001º 01´ 49´´
11:45 Parking brakes on
11:45 Block to Block Duration: 01:48
11:45 Final Fuel: 13858 Lbls
11:45 Spent Fuel: 8827 Lbls
11:45 Flight Length: 699 NM
11:45 TOD Land Length: 135 NM

Exportar CSV

Powered by Drupal - Modified by Danger4k